METAR Data
IDs: Format: Raw Decoded Include TAF

Data at: 0152 UTC 01 Mar 2021

KSET 010054Z AUTO 33013KT 10SM SCT090 09/02 A2995 RMK AO2 SLP142 T00890017